Accueil
METAR-TAF:

METAR-TAF

Aéroports :

Base aérienne de Thulé

Thulé, Groenland

latitude: 76-32N, longitude: 068-42W, altitude: 77 m

Observation

Le bulletin a été fait il y a 56 minutes, à 17:56 UTC
Vent 11 kt de est/sud-est
Température -17°C
Humidité 84%
Pression 997 hPa
Visibilité 10 km ou plus
Ciel clair

METAR: BGTL 201756Z AUTO 12011KT 9999 CLR M17/M19 A2943 RMK AO2 SLP957 T11671195 11162 21194 53005 TSNO $

Heure: 15:52 (18:52 UTC)

Prévision

Le bulletin a été fait il y a 25 heures et 52 minutes, à 17:00 UTC
Prévision valable du 19 à 17 UTC au 20 à 23 UTC
Vent 9 kt de est/nord-est
Visibilité: 2209 m
Nuages épars à une hauteur de 5000 ft

TAF: BGTL 191700Z 1917/2023 06009KT 9999 SCT050 QNH2962INS TXM08/1918Z TNM16/2017Z LAST NO AMDS AFT 1919 NEXT 2209

Observations et prévisions météorologiques de plus de 4000 aéroports (messages METAR et TAF).

Les stations disponibles sont représentées par des disques jaunes et rouges sur la carte.

Passer la souris dessus pour voir le nom de la station.

Cliquer dessus pour voir les observations et prévisions météorologiques.

Pour changer de carte: cliquez sur les boutons verts avec une croix noire pour zoomer, sur le bouton vert avec un tiret pour effectuer un zoom arrière, ou sur les flèches vertes pour les cartes adjacentes.


METAR-TAF: